SAVANNAH PORTABLE SC US current weather conditions

sailwx.info

Wind from 222 at 0 knots gusting 6

Air temperature 7.8° C
Dewpoint 7.5° C

Last reported at 2020-Jan-27 10:23 UTC.
Time now 2020-Jan-27 11:48 UTC

Location: N 32°40' W 080°43'.
View on Google Maps.

See reports from other nearby stations

  
Tides and Currents Weather Stations Pressure Air Temp Water Temp Dewpoint Dewpoint Depression Visibility Wind Speed Wind Dir Waves Ship Positions
date/time (UTC)wind fromknots sea level pressurealtimeterstation pressurevisibilityair tempwater tempwave heightnotes
2020-Jan-27 10:23 222 0 gusting 6 7.8
2020-Jan-27 09:23 245 2 gusting 4 7.8
2020-Jan-27 08:23 253 1 gusting 4 8.3
2020-Jan-27 07:23 198 0 gusting 1 8.9
2020-Jan-27 06:23 218 0 gusting 2 9.4
2020-Jan-27 05:23 215 0 gusting 4 10.6
2020-Jan-27 04:23 242 1 gusting 5 10.6
2020-Jan-27 03:23 256 1 gusting 4 10.0
2020-Jan-27 02:23 215 0 gusting 1 9.4
2020-Jan-27 01:23 8.9
2020-Jan-27 00:23 8.9
2020-Jan-26 23:23 203 1 gusting 1 10.6
2020-Jan-26 22:23 12.8
2020-Jan-26 21:23 280 3 gusting 8 15.0
2020-Jan-26 20:23 284 5 gusting 10 15.0
2020-Jan-26 19:23 289 3 gusting 13 15.6
2020-Jan-26 18:23 282 6 gusting 11 13.9
2020-Jan-26 17:23 288 5 gusting 10 12.8
2020-Jan-26 16:23 294 6 gusting 10 10.6
2020-Jan-26 15:23 272 3 gusting 12 8.9
2020-Jan-26 14:23 295 6 gusting 12 6.7
2020-Jan-26 13:23 263 2 gusting 5 3.3
2020-Jan-26 12:23 2.2
2020-Jan-26 11:23 3.3
2020-Jan-26 10:23 252 1 gusting 4 5.0
2020-Jan-26 09:23 248 1 gusting 4 5.0
2020-Jan-26 08:23 259 1 gusting 4 5.6
2020-Jan-26 07:23 273 2 gusting 5 5.6
2020-Jan-26 06:23 277 2 gusting 6 6.1
2020-Jan-26 05:23 262 1 gusting 5 6.1
2020-Jan-26 04:23 229 0 gusting 3 6.1
2020-Jan-26 03:23 228 0 gusting 3 6.7
2020-Jan-26 02:23 240 0 gusting 4 7.2
2020-Jan-26 01:23 258 1 gusting 4 7.8
2020-Jan-26 00:23 295 2 gusting 6 10.0
2020-Jan-25 23:23 242 1 gusting 9 10.6
2020-Jan-25 22:23 288 4 gusting 12 12.8
2020-Jan-25 21:23 279 5 gusting 15 13.9
2020-Jan-25 20:23 278 5 gusting 17 14.4
2020-Jan-25 19:23 285 7 gusting 15 15.0
2020-Jan-25 18:23 281 7 gusting 15 14.4
2020-Jan-25 17:23 294 6 gusting 13 13.3
2020-Jan-25 16:23 277 6 gusting 13 12.8
2020-Jan-25 15:23 295 7 gusting 16 11.1